Nearby METAR Reports

 

KW29 - Stevensville, Maryland, USA
Distance from station: SSW 13mi, 21km
Updated: Wed, 12-Dec-2018 8:20pm EST
Clear
Clear
 Wind from SSE
Wind: SSE 6 mph , 9 km/h
Temperature: 39°F , 4°C
Wind Chill: 35°F , 2°C
Dew Point: 30°F , -1°C
Humidity: 70%
Barometer: 30.21 inHg , 1023 hPa
Clouds: Clear
Visibility: 10 miles , 16 km
2018/12/13 01:20 KW29 130120Z AUTO 16005KT 10SM CLR 04/M01 A3021 RMK AO2
KMTN - Baltimore/Martin, Maryland, USA
Distance from station: NW 13mi, 22km
Updated: Wed, 12-Dec-2018 7:45pm EST
Partly cloudy
Partly cloudy
 Wind from ESE
Wind: ESE 5 mph , 7 km/h
Temperature: 36°F , 2°C
Wind Chill: 32°F , 0°C
Dew Point: 34°F , 1°C
Humidity: 93%
Barometer: 30.21 inHg , 1023 hPa
Clouds: Partly cloudy
Visibility: 10 miles , 16 km
Cloud details: Partly cloudy 11000 ft
Partly cloudy 16000 ft
2018/12/13 00:45 KMTN 130045Z 11004KT 10SM SCT110 SCT160 02/01 A3021
 
KNAK - Annapolis/Naval, Maryland, USA
Distance from station: SW 18mi, 28km
Updated: Wed, 12-Dec-2018 7:54pm EST
Clear
Clear
 Wind from S
Wind: S 9 mph , 15 km/h
Temperature: 43°F , 6°C
Wind Chill: 38°F , 3°C
Dew Point: 30°F , -1°C
Humidity: 61%
Barometer: 30.19 inHg , 1022.4 hPa
Clouds: Clear
Visibility: 8 miles , 13 km
2018/12/13 00:54 KNAK 130054Z AUTO 18008KT 8SM CLR 06/M01 A3019 RMK AO2 SLP226 T00561011 $
KAPG - Aberdeen/Phillip, Maryland, USA
Distance from station: NNE 21mi, 34km
Updated: Wed, 12-Dec-2018 7:52pm EST
Mostly cloudy
Mostly cloudy
 Wind from calm
Wind: Calm
Temperature: 25°F , -4°C
Dew Point: 21°F , -6°C
Humidity: 86%
Barometer: 30.20 inHg , 1022.7 hPa
Clouds: Mostly cloudy
Visibility: 10 miles , 16 km
Cloud details: Mostly cloudy 15000 ft
2018/12/13 00:52 KAPG 130052Z 00000KT 10SM BKN150 M04/M06 A3020 RMK SLP231
 
KDMH - Baltimore/Dwntwn, Maryland, USA
Distance from station: WNW 21mi, 34km
Updated: Wed, 12-Dec-2018 7:54pm EST

 
Temperature: 39°F , 4°C
Dew Point: 27°F , -3°C
Humidity: 61%
Barometer: 30.19 inHg , 1022.4 hPa
2018/12/13 00:54 KDMH 130054Z AUTO 04/M03 A3019 RMK AO1 SLP222 T00441028
KBWI - Balto/Wash Intl, Maryland, USA
Distance from station: W 23mi, 37km
Updated: Wed, 12-Dec-2018 7:54pm EST
Mostly cloudy
Mostly cloudy
 Wind from SE
Wind: SE 5 mph , 7 km/h
Temperature: 37°F , 3°C
Wind Chill: 33°F , 1°C
Dew Point: 27°F , -3°C
Humidity: 65%
Barometer: 30.18 inHg , 1022 hPa
Clouds: Mostly cloudy
Visibility: 9 miles , 14 km
Cloud details: Few Clouds 16000 ft
Mostly cloudy 25000 ft
2018/12/13 00:54 KBWI 130054Z 13004KT 9SM FEW160 BKN250 03/M03 A3018 RMK AO2 SLP222 T00281028
 
KESN - Easton/Newnam, Maryland, USA
Distance from station: SSE 27mi, 44km
Updated: Wed, 12-Dec-2018 8:45pm EST
Clear
Clear
 Wind from calm
Wind: Calm
Temperature: 37°F , 3°C
Dew Point: 28°F , -2°C
Humidity: 70%
Barometer: 30.26 inHg , 1024.7 hPa
Clouds: Clear
Visibility: 10 miles , 16 km
2018/12/13 01:45 KESN 130145Z 00000KT 10SM SKC 03/M02 A3026
KFME - Fort Meade, Maryland, USA
Distance from station: WSW 28mi, 45km
Updated: Wed, 12-Dec-2018 8:21pm EST
Clear
Clear
 Wind from calm
Wind: Calm
Temperature: 32°F , 0°C
Dew Point: 27°F , -3°C
Humidity: 80%
Barometer: 30.22 inHg , 1023.4 hPa
Clouds: Clear
Visibility: 10 miles , 16 km
2018/12/13 01:21 KFME 130121Z AUTO 00000KT 10SM CLR 00/M03 A3022 RMK AO1
 
KCGS - College Park, Maryland, USA
Distance from station: WSW 38mi, 61km
Updated: Wed, 12-Dec-2018 8:22pm EST
Clear
Clear
 Wind from calm
Wind: Calm
Temperature: 37°F , 3°C
Dew Point: 25°F , -4°C
Humidity: 60%
Barometer: 30.20 inHg , 1022.7 hPa
Clouds: Clear
Visibility: 10 miles , 16 km
2018/12/13 01:22 KCGS 130122Z AUTO 00000KT 10SM CLR 03/M04 A3020 RMK AO1 T00261045
KADW - Andrews Afb, Maryland, USA
Distance from station: SW 41mi, 66km
Updated: Wed, 12-Dec-2018 7:56pm EST
Clear
Clear
 Wind from SE
Wind: SE 6 mph , 9 km/h
Temperature: 36°F , 2°C
Wind Chill: 31°F , -1°C
Dew Point: 25°F , -4°C
Humidity: 65%
Barometer: 30.17 inHg , 1021.7 hPa
Clouds: Clear
Visibility: 10 miles , 16 km
2018/12/13 00:56 KADW 130056Z AUTO 14005KT 10SM CLR 02/M04 A3017 RMK AO2 SLP226 T00231045 $
 
KDOV - Dover Afb, Delaware, USA
Distance from station: E 42mi, 68km
Updated: Wed, 12-Dec-2018 7:56pm EST
Partly cloudy
Partly cloudy
 Wind from SE
Wind: SE 5 mph , 7 km/h
Temperature: 36°F , 2°C
Wind Chill: 32°F , 0°C
Dew Point: 28°F , -2°C
Humidity: 75%
Barometer: 30.21 inHg , 1023 hPa
Clouds: Partly cloudy
Visibility: 10 miles , 16 km
Cloud details: Few Clouds 13000 ft
Partly cloudy 19000 ft
2018/12/13 00:56 KDOV 130056Z AUTO 13004KT 10SM FEW130 SCT190 02/M02 A3021 RMK AO2 SLP234 T00201018 $
KCGE - Cambridge-Dorch, Maryland, USA
Distance from station: SSE 45mi, 73km
Updated: Wed, 12-Dec-2018 8:20pm EST
Clear
Clear
 Wind from SE
Wind: SE 7 mph , 11 km/h
Temperature: 36°F , 2°C
Wind Chill: 30°F , -1°C
Dew Point: 30°F , -1°C
Humidity: 81%
Barometer: 30.21 inHg , 1023 hPa
Clouds: Clear
Visibility: 10 miles , 16 km
2018/12/13 01:20 KCGE 130120Z AUTO 13006KT 10SM CLR 02/M01 A3021 RMK A01
 
KDCA - Washington/Natl, Washington D.c., USA
Distance from station: WSW 47mi, 76km
Updated: Wed, 12-Dec-2018 7:52pm EST
Mostly cloudy
Mostly cloudy
 Wind from S
Wind: S 8 mph , 13 km/h
Temperature: 39°F , 4°C
Wind Chill: 33°F , 1°C
Dew Point: 27°F , -3°C
Humidity: 61%
Barometer: 30.20 inHg , 1022.7 hPa
Clouds: Mostly cloudy
Visibility: 10 miles , 16 km
Cloud details: Partly cloudy 9000 ft
Mostly cloudy 25000 ft
2018/12/13 00:52 KDCA 130052Z 19007KT 10SM SCT090 BKN250 04/M03 A3020 RMK AO2 SLP225 T00391033
KGAI - Gaithersburg, Maryland, USA
Distance from station: W 49mi, 78km
Updated: Wed, 12-Dec-2018 7:56pm EST
Clear
Clear
 Wind from SSE
Wind: SSE 6 mph , 9 km/h
Temperature: 36°F , 2°C
Wind Chill: 31°F , -1°C
Dew Point: 23°F , -5°C
Humidity: 60%
Barometer: 30.17 inHg , 1021.7 hPa
Clouds: Clear
Visibility: 10 miles , 16 km
2018/12/13 00:56 KGAI 130056Z AUTO 15005KT 10SM CLR 02/M05 A3017 RMK AO2 SLP247 T00221050 FZRANO
 
KILG - Wilmington, Delaware, USA
Distance from station: NE 49mi, 79km
Updated: Wed, 12-Dec-2018 7:51pm EST
Clear
Clear
 Wind from ESE
Wind: ESE 3 mph , 6 km/h
Temperature: 37°F , 3°C
Dew Point: 27°F , -3°C
Humidity: 65%
Barometer: 30.22 inHg , 1023.4 hPa
Clouds: Clear
Visibility: 10 miles , 16 km
2018/12/13 00:51 KILG 130051Z AUTO 12003KT 10SM CLR 03/M03 A3022 RMK AO2 SLP235 T00281033
KDMW - Carroll Cnty, Maryland, USA
Distance from station: NW 50mi, 80km
Updated: Wed, 12-Dec-2018 8:20pm EST
Clear
Clear
 Wind from SSE
Wind: SSE 5 mph , 7 km/h
Temperature: 36°F , 2°C
Wind Chill: 32°F , 0°C
Dew Point: 23°F , -5°C
Humidity: 60%
Barometer: 30.15 inHg , 1021 hPa
Clouds: Clear
Visibility: 10 miles , 16 km
2018/12/13 01:20 KDMW 130120Z AUTO 15004KT 10SM CLR 02/M05 A3015 RMK AO2